sensor_id;sensor_type;location;lat;lon;timestamp;temperature;humidity
5457;DHT22;2751;49.802;9.944;2023-05-07T00:00:24;15.00;18.30
5457;DHT22;2751;49.802;9.944;2023-05-07T00:02:51;15.00;4.90
5457;DHT22;2751;49.802;9.944;2023-05-07T00:05:18;15.10;1.00
5457;DHT22;2751;49.802;9.944;2023-05-07T00:07:47;15.00;1.00
5457;DHT22;2751;49.802;9.944;2023-05-07T00:10:13;14.90;1.00
5457;DHT22;2751;49.802;9.944;2023-05-07T00:12:40;15.00;1.00
5457;DHT22;2751;49.802;9.944;2023-05-07T00:15:08;15.00;1.00
5457;DHT22;2751;49.802;9.944;2023-05-07T00:17:37;15.00;1.00
5457;DHT22;2751;49.802;9.944;2023-05-07T00:20:05;15.00;1.00
5457;DHT22;2751;49.802;9.944;2023-05-07T00:22:32;15.00;1.00
5457;DHT22;2751;49.802;9.944;2023-05-07T00:24:58;14.90;1.00
5457;DHT22;2751;49.802;9.944;2023-05-07T00:27:25;15.00;1.00
5457;DHT22;2751;49.802;9.944;2023-05-07T00:29:52;14.90;1.00
5457;DHT22;2751;49.802;9.944;2023-05-07T00:32:19;14.90;1.00
5457;DHT22;2751;49.802;9.944;2023-05-07T00:34:47;14.90;1.00
5457;DHT22;2751;49.802;9.944;2023-05-07T00:37:14;15.00;1.00
5457;DHT22;2751;49.802;9.944;2023-05-07T00:39:41;14.90;1.00
5457;DHT22;2751;49.802;9.944;2023-05-07T00:42:08;14.90;1.00
5457;DHT22;2751;49.802;9.944;2023-05-07T00:44:35;14.90;1.00
5457;DHT22;2751;49.802;9.944;2023-05-07T00:47:03;14.80;1.00
5457;DHT22;2751;49.802;9.944;2023-05-07T00:49:37;14.80;1.00
5457;DHT22;2751;49.802;9.944;2023-05-07T00:52:06;14.70;1.00
5457;DHT22;2751;49.802;9.944;2023-05-07T00:54:34;14.60;1.00
5457;DHT22;2751;49.802;9.944;2023-05-07T00:57:02;14.60;1.00
5457;DHT22;2751;49.802;9.944;2023-05-07T00:59:30;14.50;1.00
5457;DHT22;2751;49.802;9.944;2023-05-07T01:01:58;14.50;1.00
5457;DHT22;2751;49.802;9.944;2023-05-07T01:04:26;14.50;62.30
5457;DHT22;2751;49.802;9.944;2023-05-07T01:06:54;14.80;99.90
5457;DHT22;2751;49.802;9.944;2023-05-07T01:09:23;14.60;99.90
5457;DHT22;2751;49.802;9.944;2023-05-07T01:11:50;14.50;99.90
5457;DHT22;2751;49.802;9.944;2023-05-07T01:14:19;14.50;99.90
5457;DHT22;2751;49.802;9.944;2023-05-07T01:16:47;14.60;99.90
5457;DHT22;2751;49.802;9.944;2023-05-07T01:19:15;14.40;99.90
5457;DHT22;2751;49.802;9.944;2023-05-07T01:21:46;14.40;99.90
5457;DHT22;2751;49.802;9.944;2023-05-07T01:24:16;14.60;99.90
5457;DHT22;2751;49.802;9.944;2023-05-07T01:26:44;14.30;78.20
5457;DHT22;2751;49.802;9.944;2023-05-07T01:29:11;14.20;7.80
5457;DHT22;2751;49.802;9.944;2023-05-07T01:31:39;14.20;15.40
5457;DHT22;2751;49.802;9.944;2023-05-07T01:34:07;14.20;17.60
5457;DHT22;2751;49.802;9.944;2023-05-07T01:36:35;14.10;29.80
5457;DHT22;2751;49.802;9.944;2023-05-07T01:39:03;14.10;99.90
5457;DHT22;2751;49.802;9.944;2023-05-07T01:41:33;14.50;99.90
5457;DHT22;2751;49.802;9.944;2023-05-07T01:44:00;14.30;99.90
5457;DHT22;2751;49.802;9.944;2023-05-07T01:46:28;14.00;99.90
5457;DHT22;2751;49.802;9.944;2023-05-07T01:48:55;13.90;99.90
5457;DHT22;2751;49.802;9.944;2023-05-07T01:51:22;13.90;99.90
5457;DHT22;2751;49.802;9.944;2023-05-07T01:53:49;14.10;99.90
5457;DHT22;2751;49.802;9.944;2023-05-07T01:56:17;13.90;99.90
5457;DHT22;2751;49.802;9.944;2023-05-07T01:58:46;13.80;99.90
5457;DHT22;2751;49.802;9.944;2023-05-07T02:01:13;14.00;99.90
5457;DHT22;2751;49.802;9.944;2023-05-07T02:03:40;13.80;73.90
5457;DHT22;2751;49.802;9.944;2023-05-07T02:06:07;13.70;54.50
5457;DHT22;2751;49.802;9.944;2023-05-07T02:08:34;13.90;93.20
5457;DHT22;2751;49.802;9.944;2023-05-07T02:11:01;14.00;99.90
5457;DHT22;2751;49.802;9.944;2023-05-07T02:13:29;13.70;99.90
5457;DHT22;2751;49.802;9.944;2023-05-07T02:15:58;13.60;99.90
5457;DHT22;2751;49.802;9.944;2023-05-07T02:18:25;13.70;99.90
5457;DHT22;2751;49.802;9.944;2023-05-07T02:20:52;13.60;99.90
5457;DHT22;2751;49.802;9.944;2023-05-07T02:23:19;13.70;99.90
5457;DHT22;2751;49.802;9.944;2023-05-07T02:25:46;14.00;99.90
5457;DHT22;2751;49.802;9.944;2023-05-07T02:28:13;14.00;99.90
5457;DHT22;2751;49.802;9.944;2023-05-07T02:30:39;13.60;99.90
5457;DHT22;2751;49.802;9.944;2023-05-07T02:33:08;13.60;99.90
5457;DHT22;2751;49.802;9.944;2023-05-07T02:35:35;13.60;99.90
5457;DHT22;2751;49.802;9.944;2023-05-07T02:38:02;13.70;99.90
5457;DHT22;2751;49.802;9.944;2023-05-07T02:40:28;13.80;99.90
5457;DHT22;2751;49.802;9.944;2023-05-07T02:42:59;13.70;99.90
5457;DHT22;2751;49.802;9.944;2023-05-07T02:45:26;13.70;99.90
5457;DHT22;2751;49.802;9.944;2023-05-07T02:47:53;13.70;99.90
5457;DHT22;2751;49.802;9.944;2023-05-07T02:50:21;13.70;99.90
5457;DHT22;2751;49.802;9.944;2023-05-07T02:52:48;13.70;99.90
5457;DHT22;2751;49.802;9.944;2023-05-07T02:55:15;13.60;99.90
5457;DHT22;2751;49.802;9.944;2023-05-07T02:57:42;13.60;99.90
5457;DHT22;2751;49.802;9.944;2023-05-07T03:00:14;13.60;99.90
5457;DHT22;2751;49.802;9.944;2023-05-07T03:02:41;13.60;99.90
5457;DHT22;2751;49.802;9.944;2023-05-07T03:05:08;13.70;99.90
5457;DHT22;2751;49.802;9.944;2023-05-07T03:07:36;13.80;99.90
5457;DHT22;2751;49.802;9.944;2023-05-07T03:10:04;13.60;99.90
5457;DHT22;2751;49.802;9.944;2023-05-07T03:12:31;13.70;99.90
5457;DHT22;2751;49.802;9.944;2023-05-07T03:14:57;13.70;99.90
5457;DHT22;2751;49.802;9.944;2023-05-07T03:17:24;13.70;99.90
5457;DHT22;2751;49.802;9.944;2023-05-07T03:19:51;13.70;99.90
5457;DHT22;2751;49.802;9.944;2023-05-07T03:22:18;13.80;99.90
5457;DHT22;2751;49.802;9.944;2023-05-07T03:24:46;13.70;99.90
5457;DHT22;2751;49.802;9.944;2023-05-07T03:27:13;13.70;99.90
5457;DHT22;2751;49.802;9.944;2023-05-07T03:29:40;13.70;99.90
5457;DHT22;2751;49.802;9.944;2023-05-07T03:32:09;14.10;99.90
5457;DHT22;2751;49.802;9.944;2023-05-07T03:34:36;13.80;99.90
5457;DHT22;2751;49.802;9.944;2023-05-07T03:37:03;14.00;99.90
5457;DHT22;2751;49.802;9.944;2023-05-07T03:39:30;14.10;99.90
5457;DHT22;2751;49.802;9.944;2023-05-07T03:41:58;13.90;99.90
5457;DHT22;2751;49.802;9.944;2023-05-07T03:44:26;13.90;99.90
5457;DHT22;2751;49.802;9.944;2023-05-07T03:46:53;14.00;99.90
5457;DHT22;2751;49.802;9.944;2023-05-07T03:49:19;14.20;99.90
5457;DHT22;2751;49.802;9.944;2023-05-07T03:51:46;14.00;99.90
5457;DHT22;2751;49.802;9.944;2023-05-07T03:54:13;14.00;99.90
5457;DHT22;2751;49.802;9.944;2023-05-07T03:56:40;14.00;99.90
5457;DHT22;2751;49.802;9.944;2023-05-07T03:59:08;14.00;99.90
5457;DHT22;2751;49.802;9.944;2023-05-07T04:01:35;14.00;99.90
5457;DHT22;2751;49.802;9.944;2023-05-07T04:04:02;14.00;99.90
5457;DHT22;2751;49.802;9.944;2023-05-07T04:06:29;14.00;99.90
5457;DHT22;2751;49.802;9.944;2023-05-07T04:08:56;14.00;99.90
5457;DHT22;2751;49.802;9.944;2023-05-07T04:11:23;14.00;99.90
5457;DHT22;2751;49.802;9.944;2023-05-07T04:13:50;14.10;99.90
5457;DHT22;2751;49.802;9.944;2023-05-07T04:16:18;14.10;99.90
5457;DHT22;2751;49.802;9.944;2023-05-07T04:18:45;14.10;99.90
5457;DHT22;2751;49.802;9.944;2023-05-07T04:21:15;14.30;99.90
5457;DHT22;2751;49.802;9.944;2023-05-07T04:23:42;14.30;99.90
5457;DHT22;2751;49.802;9.944;2023-05-07T04:26:09;14.40;99.90
5457;DHT22;2751;49.802;9.944;2023-05-07T04:28:36;14.50;99.90
5457;DHT22;2751;49.802;9.944;2023-05-07T04:31:03;14.00;99.90
5457;DHT22;2751;49.802;9.944;2023-05-07T04:33:32;14.00;99.90
5457;DHT22;2751;49.802;9.944;2023-05-07T04:36:01;14.20;99.90
5457;DHT22;2751;49.802;9.944;2023-05-07T04:38:29;14.00;99.90
5457;DHT22;2751;49.802;9.944;2023-05-07T04:40:57;13.90;99.90
5457;DHT22;2751;49.802;9.944;2023-05-07T04:43:24;13.90;99.90
5457;DHT22;2751;49.802;9.944;2023-05-07T04:45:51;13.90;99.90
5457;DHT22;2751;49.802;9.944;2023-05-07T04:48:18;13.90;99.90
5457;DHT22;2751;49.802;9.944;2023-05-07T04:50:48;13.90;99.90
5457;DHT22;2751;49.802;9.944;2023-05-07T04:53:16;14.00;99.90
5457;DHT22;2751;49.802;9.944;2023-05-07T04:55:43;14.10;99.90
5457;DHT22;2751;49.802;9.944;2023-05-07T04:58:11;14.40;99.90
5457;DHT22;2751;49.802;9.944;2023-05-07T05:00:38;14.10;99.90
5457;DHT22;2751;49.802;9.944;2023-05-07T05:03:06;14.30;99.90
5457;DHT22;2751;49.802;9.944;2023-05-07T05:05:33;14.30;99.90
5457;DHT22;2751;49.802;9.944;2023-05-07T05:08:01;14.40;99.90
5457;DHT22;2751;49.802;9.944;2023-05-07T05:10:28;14.50;99.90
5457;DHT22;2751;49.802;9.944;2023-05-07T05:12:55;14.50;99.90
5457;DHT22;2751;49.802;9.944;2023-05-07T05:15:22;14.50;99.90
5457;DHT22;2751;49.802;9.944;2023-05-07T05:17:48;14.50;90.30
5457;DHT22;2751;49.802;9.944;2023-05-07T05:20:15;14.60;79.00
5457;DHT22;2751;49.802;9.944;2023-05-07T05:22:42;14.60;58.70
5457;DHT22;2751;49.802;9.944;2023-05-07T05:25:10;14.60;40.60
5457;DHT22;2751;49.802;9.944;2023-05-07T05:27:37;14.60;31.70
5457;DHT22;2751;49.802;9.944;2023-05-07T05:30:05;15.00;22.60
5457;DHT22;2751;49.802;9.944;2023-05-07T05:32:32;14.70;7.50
5457;DHT22;2751;49.802;9.944;2023-05-07T05:34:59;14.80;1.00
5457;DHT22;2751;49.802;9.944;2023-05-07T05:37:26;14.80;1.00
5457;DHT22;2751;49.802;9.944;2023-05-07T05:39:53;14.90;1.00
5457;DHT22;2751;49.802;9.944;2023-05-07T05:42:22;15.00;1.00
5457;DHT22;2751;49.802;9.944;2023-05-07T05:44:49;15.00;1.00
5457;DHT22;2751;49.802;9.944;2023-05-07T05:47:16;15.20;1.00
5457;DHT22;2751;49.802;9.944;2023-05-07T05:49:43;15.10;1.00
5457;DHT22;2751;49.802;9.944;2023-05-07T05:52:11;15.10;1.00
5457;DHT22;2751;49.802;9.944;2023-05-07T05:54:38;15.40;1.00
5457;DHT22;2751;49.802;9.944;2023-05-07T05:57:05;15.10;1.00
5457;DHT22;2751;49.802;9.944;2023-05-07T05:59:33;15.20;1.00
5457;DHT22;2751;49.802;9.944;2023-05-07T06:02:00;15.20;1.00
5457;DHT22;2751;49.802;9.944;2023-05-07T06:04:27;15.30;1.00
5457;DHT22;2751;49.802;9.944;2023-05-07T06:06:54;15.30;1.00
5457;DHT22;2751;49.802;9.944;2023-05-07T06:09:22;15.10;1.00
5457;DHT22;2751;49.802;9.944;2023-05-07T06:11:49;15.40;1.00
5457;DHT22;2751;49.802;9.944;2023-05-07T06:14:16;15.40;1.00
5457;DHT22;2751;49.802;9.944;2023-05-07T06:16:44;15.50;1.00
5457;DHT22;2751;49.802;9.944;2023-05-07T06:19:11;15.50;1.00
5457;DHT22;2751;49.802;9.944;2023-05-07T06:21:38;15.60;1.00
5457;DHT22;2751;49.802;9.944;2023-05-07T06:24:06;15.70;1.00
5457;DHT22;2751;49.802;9.944;2023-05-07T06:26:33;15.90;1.00
5457;DHT22;2751;49.802;9.944;2023-05-07T06:29:00;15.90;1.00
5457;DHT22;2751;49.802;9.944;2023-05-07T06:31:30;16.00;1.00
5457;DHT22;2751;49.802;9.944;2023-05-07T06:33:59;16.00;1.00
5457;DHT22;2751;49.802;9.944;2023-05-07T06:36:27;16.20;1.00
5457;DHT22;2751;49.802;9.944;2023-05-07T06:38:54;16.40;1.00
5457;DHT22;2751;49.802;9.944;2023-05-07T06:41:21;16.50;1.00
5457;DHT22;2751;49.802;9.944;2023-05-07T06:43:48;16.50;1.00
5457;DHT22;2751;49.802;9.944;2023-05-07T06:46:15;16.60;1.00
5457;DHT22;2751;49.802;9.944;2023-05-07T06:48:42;16.70;1.00
5457;DHT22;2751;49.802;9.944;2023-05-07T06:51:10;17.10;1.00
5457;DHT22;2751;49.802;9.944;2023-05-07T06:53:37;17.30;1.00
5457;DHT22;2751;49.802;9.944;2023-05-07T06:56:05;17.20;1.00
5457;DHT22;2751;49.802;9.944;2023-05-07T06:58:32;17.10;1.00
5457;DHT22;2751;49.802;9.944;2023-05-07T07:00:59;17.20;1.00
5457;DHT22;2751;49.802;9.944;2023-05-07T07:03:25;17.20;1.00
5457;DHT22;2751;49.802;9.944;2023-05-07T07:05:53;17.30;1.00
5457;DHT22;2751;49.802;9.944;2023-05-07T07:08:22;17.20;1.00
5457;DHT22;2751;49.802;9.944;2023-05-07T07:10:49;17.30;1.00
5457;DHT22;2751;49.802;9.944;2023-05-07T07:13:16;17.30;1.00
5457;DHT22;2751;49.802;9.944;2023-05-07T07:15:43;17.30;99.90
5457;DHT22;2751;49.802;9.944;2023-05-07T07:18:10;17.20;99.90
5457;DHT22;2751;49.802;9.944;2023-05-07T07:20:37;17.30;99.90
5457;DHT22;2751;49.802;9.944;2023-05-07T07:23:04;17.40;99.90
5457;DHT22;2751;49.802;9.944;2023-05-07T07:25:32;17.60;99.90
5457;DHT22;2751;49.802;9.944;2023-05-07T07:27:59;17.70;1.00
5457;DHT22;2751;49.802;9.944;2023-05-07T07:30:26;17.90;99.90
5457;DHT22;2751;49.802;9.944;2023-05-07T07:32:53;18.20;99.90
5457;DHT22;2751;49.802;9.944;2023-05-07T07:35:20;18.20;99.90
5457;DHT22;2751;49.802;9.944;2023-05-07T07:37:48;18.10;99.90
5457;DHT22;2751;49.802;9.944;2023-05-07T07:40:15;18.40;99.90
5457;DHT22;2751;49.802;9.944;2023-05-07T07:42:44;18.70;99.90
5457;DHT22;2751;49.802;9.944;2023-05-07T07:45:11;19.00;99.90
5457;DHT22;2751;49.802;9.944;2023-05-07T07:47:38;19.20;99.90
5457;DHT22;2751;49.802;9.944;2023-05-07T07:50:06;19.40;99.90
5457;DHT22;2751;49.802;9.944;2023-05-07T07:52:33;19.60;99.90
5457;DHT22;2751;49.802;9.944;2023-05-07T07:55:00;19.60;99.90
5457;DHT22;2751;49.802;9.944;2023-05-07T07:57:27;19.50;99.90
5457;DHT22;2751;49.802;9.944;2023-05-07T07:59:55;19.50;99.90
5457;DHT22;2751;49.802;9.944;2023-05-07T08:02:22;19.30;99.90
5457;DHT22;2751;49.802;9.944;2023-05-07T08:04:49;19.30;99.90
5457;DHT22;2751;49.802;9.944;2023-05-07T08:07:16;19.50;99.90
5457;DHT22;2751;49.802;9.944;2023-05-07T08:09:44;19.30;99.90
5457;DHT22;2751;49.802;9.944;2023-05-07T08:12:11;19.10;99.90
5457;DHT22;2751;49.802;9.944;2023-05-07T08:14:38;19.00;99.90
5457;DHT22;2751;49.802;9.944;2023-05-07T08:17:06;18.90;99.90
5457;DHT22;2751;49.802;9.944;2023-05-07T08:19:35;19.00;99.90
5457;DHT22;2751;49.802;9.944;2023-05-07T08:22:02;19.20;99.90
5457;DHT22;2751;49.802;9.944;2023-05-07T08:24:29;19.40;99.90
5457;DHT22;2751;49.802;9.944;2023-05-07T08:26:56;19.40;99.90
5457;DHT22;2751;49.802;9.944;2023-05-07T08:29:23;19.30;99.90
5457;DHT22;2751;49.802;9.944;2023-05-07T08:31:50;19.40;99.90
5457;DHT22;2751;49.802;9.944;2023-05-07T08:34:18;19.50;99.90
5457;DHT22;2751;49.802;9.944;2023-05-07T08:36:45;19.60;99.90
5457;DHT22;2751;49.802;9.944;2023-05-07T08:39:14;19.40;99.90
5457;DHT22;2751;49.802;9.944;2023-05-07T08:41:44;19.50;99.90
5457;DHT22;2751;49.802;9.944;2023-05-07T08:44:12;19.60;99.90
5457;DHT22;2751;49.802;9.944;2023-05-07T08:46:41;19.80;99.90
5457;DHT22;2751;49.802;9.944;2023-05-07T08:49:09;20.20;99.90
5457;DHT22;2751;49.802;9.944;2023-05-07T08:51:37;20.30;99.90
5457;DHT22;2751;49.802;9.944;2023-05-07T08:54:04;20.20;99.90
5457;DHT22;2751;49.802;9.944;2023-05-07T08:56:32;20.50;99.90
5457;DHT22;2751;49.802;9.944;2023-05-07T08:58:59;20.70;99.90
5457;DHT22;2751;49.802;9.944;2023-05-07T09:01:26;20.70;99.90
5457;DHT22;2751;49.802;9.944;2023-05-07T09:03:53;20.80;99.90
5457;DHT22;2751;49.802;9.944;2023-05-07T09:06:20;21.10;99.90
5457;DHT22;2751;49.802;9.944;2023-05-07T09:08:52;21.90;99.90
5457;DHT22;2751;49.802;9.944;2023-05-07T09:11:22;22.40;99.90
5457;DHT22;2751;49.802;9.944;2023-05-07T09:13:51;22.30;99.90
5457;DHT22;2751;49.802;9.944;2023-05-07T09:16:20;22.30;99.90
5457;DHT22;2751;49.802;9.944;2023-05-07T09:18:51;22.30;99.90
5457;DHT22;2751;49.802;9.944;2023-05-07T09:21:18;22.40;99.90
5457;DHT22;2751;49.802;9.944;2023-05-07T09:23:45;22.40;99.90
5457;DHT22;2751;49.802;9.944;2023-05-07T09:26:15;22.50;99.90
5457;DHT22;2751;49.802;9.944;2023-05-07T09:28:42;22.70;99.90
5457;DHT22;2751;49.802;9.944;2023-05-07T09:31:10;23.40;99.90
5457;DHT22;2751;49.802;9.944;2023-05-07T09:33:38;23.50;99.90
5457;DHT22;2751;49.802;9.944;2023-05-07T09:36:05;23.70;99.90
5457;DHT22;2751;49.802;9.944;2023-05-07T09:38:33;24.20;99.90
5457;DHT22;2751;49.802;9.944;2023-05-07T09:41:03;24.90;99.90
5457;DHT22;2751;49.802;9.944;2023-05-07T09:43:33;25.90;99.90
5457;DHT22;2751;49.802;9.944;2023-05-07T09:46:04;26.80;97.60
5457;DHT22;2751;49.802;9.944;2023-05-07T09:48:34;26.10;97.00
5457;DHT22;2751;49.802;9.944;2023-05-07T09:51:02;25.60;97.10
5457;DHT22;2751;49.802;9.944;2023-05-07T09:53:33;27.00;95.90
5457;DHT22;2751;49.802;9.944;2023-05-07T09:56:01;28.60;93.00
5457;DHT22;2751;49.802;9.944;2023-05-07T09:58:29;28.30;91.70
5457;DHT22;2751;49.802;9.944;2023-05-07T10:00:58;28.60;90.80
5457;DHT22;2751;49.802;9.944;2023-05-07T10:03:27;30.00;86.70
5457;DHT22;2751;49.802;9.944;2023-05-07T10:05:56;29.00;84.60
5457;DHT22;2751;49.802;9.944;2023-05-07T10:08:24;28.20;85.00
5457;DHT22;2751;49.802;9.944;2023-05-07T10:10:52;29.70;82.40
5457;DHT22;2751;49.802;9.944;2023-05-07T10:13:19;30.80;77.80
5457;DHT22;2751;49.802;9.944;2023-05-07T10:15:47;31.00;76.90
5457;DHT22;2751;49.802;9.944;2023-05-07T10:18:15;31.40;74.20
5457;DHT22;2751;49.802;9.944;2023-05-07T10:20:43;31.90;71.70
5457;DHT22;2751;49.802;9.944;2023-05-07T10:23:15;32.60;68.40
5457;DHT22;2751;49.802;9.944;2023-05-07T10:25:44;32.30;65.70
5457;DHT22;2751;49.802;9.944;2023-05-07T10:28:12;32.50;65.50
5457;DHT22;2751;49.802;9.944;2023-05-07T10:30:48;32.80;63.80
5457;DHT22;2751;49.802;9.944;2023-05-07T10:33:23;33.10;61.90
5457;DHT22;2751;49.802;9.944;2023-05-07T10:35:51;32.70;61.00
5457;DHT22;2751;49.802;9.944;2023-05-07T10:38:22;32.30;59.20
5457;DHT22;2751;49.802;9.944;2023-05-07T10:40:51;31.50;61.00
5457;DHT22;2751;49.802;9.944;2023-05-07T10:43:17;30.90;62.20
5457;DHT22;2751;49.802;9.944;2023-05-07T10:46:13;31.40;61.60
5457;DHT22;2751;49.802;9.944;2023-05-07T10:49:09;31.00;61.20
5457;DHT22;2751;49.802;9.944;2023-05-07T10:51:37;29.70;63.70
5457;DHT22;2751;49.802;9.944;2023-05-07T10:54:22;28.70;66.00
5457;DHT22;2751;49.802;9.944;2023-05-07T10:56:50;28.20;68.00
5457;DHT22;2751;49.802;9.944;2023-05-07T10:59:33;29.00;66.80
5457;DHT22;2751;49.802;9.944;2023-05-07T11:02:06;30.00;63.90
5457;DHT22;2751;49.802;9.944;2023-05-07T11:04:37;29.90;63.90
5457;DHT22;2751;49.802;9.944;2023-05-07T11:07:26;29.40;63.60
5457;DHT22;2751;49.802;9.944;2023-05-07T11:10:01;30.10;62.60
5457;DHT22;2751;49.802;9.944;2023-05-07T11:12:54;29.60;63.00
5457;DHT22;2751;49.802;9.944;2023-05-07T11:15:42;29.40;63.60
5457;DHT22;2751;49.802;9.944;2023-05-07T11:18:10;29.90;61.90
5457;DHT22;2751;49.802;9.944;2023-05-07T11:20:57;30.30;61.80
5457;DHT22;2751;49.802;9.944;2023-05-07T11:23:56;30.90;59.80
5457;DHT22;2751;49.802;9.944;2023-05-07T11:26:24;30.50;60.40
5457;DHT22;2751;49.802;9.944;2023-05-07T11:28:52;30.50;58.60
5457;DHT22;2751;49.802;9.944;2023-05-07T11:31:27;31.60;58.60
5457;DHT22;2751;49.802;9.944;2023-05-07T11:33:55;31.90;57.70
5457;DHT22;2751;49.802;9.944;2023-05-07T11:36:24;32.90;56.80
5457;DHT22;2751;49.802;9.944;2023-05-07T11:38:52;34.00;55.80
5457;DHT22;2751;49.802;9.944;2023-05-07T11:41:19;34.70;55.00
5457;DHT22;2751;49.802;9.944;2023-05-07T11:43:56;35.60;52.60
5457;DHT22;2751;49.802;9.944;2023-05-07T11:46:23;34.90;51.70
5457;DHT22;2751;49.802;9.944;2023-05-07T11:48:50;34.90;51.90
5457;DHT22;2751;49.802;9.944;2023-05-07T11:51:22;34.90;51.50
5457;DHT22;2751;49.802;9.944;2023-05-07T11:53:50;34.90;51.40
5457;DHT22;2751;49.802;9.944;2023-05-07T11:56:18;35.40;50.70
5457;DHT22;2751;49.802;9.944;2023-05-07T11:58:46;35.50;50.00
5457;DHT22;2751;49.802;9.944;2023-05-07T12:01:14;36.00;49.10
5457;DHT22;2751;49.802;9.944;2023-05-07T12:03:43;36.40;48.20
5457;DHT22;2751;49.802;9.944;2023-05-07T12:06:11;35.80;48.50
5457;DHT22;2751;49.802;9.944;2023-05-07T12:08:39;35.40;48.80
5457;DHT22;2751;49.802;9.944;2023-05-07T12:11:15;35.50;48.20
5457;DHT22;2751;49.802;9.944;2023-05-07T12:13:43;36.10;47.50
5457;DHT22;2751;49.802;9.944;2023-05-07T12:16:11;36.20;47.10
5457;DHT22;2751;49.802;9.944;2023-05-07T12:18:38;36.40;46.60
5457;DHT22;2751;49.802;9.944;2023-05-07T12:21:06;35.70;46.00
5457;DHT22;2751;49.802;9.944;2023-05-07T12:23:34;36.20;45.90
5457;DHT22;2751;49.802;9.944;2023-05-07T12:26:01;35.20;46.10
5457;DHT22;2751;49.802;9.944;2023-05-07T12:28:37;35.20;46.00
5457;DHT22;2751;49.802;9.944;2023-05-07T12:31:05;36.10;45.20
5457;DHT22;2751;49.802;9.944;2023-05-07T12:33:33;36.80;44.50
5457;DHT22;2751;49.802;9.944;2023-05-07T12:36:04;36.50;43.50
5457;DHT22;2751;49.802;9.944;2023-05-07T12:38:35;36.60;44.00
5457;DHT22;2751;49.802;9.944;2023-05-07T12:41:03;37.30;42.30
5457;DHT22;2751;49.802;9.944;2023-05-07T12:43:32;35.90;42.00
5457;DHT22;2751;49.802;9.944;2023-05-07T12:46:01;34.60;43.50
5457;DHT22;2751;49.802;9.944;2023-05-07T12:48:28;35.00;44.50
5457;DHT22;2751;49.802;9.944;2023-05-07T12:50:55;34.50;43.90
5457;DHT22;2751;49.802;9.944;2023-05-07T12:53:23;33.60;45.00
5457;DHT22;2751;49.802;9.944;2023-05-07T12:55:52;34.20;44.80
5457;DHT22;2751;49.802;9.944;2023-05-07T12:58:20;35.40;43.60
5457;DHT22;2751;49.802;9.944;2023-05-07T13:00:50;35.40;42.70
5457;DHT22;2751;49.802;9.944;2023-05-07T13:03:24;35.60;42.70
5457;DHT22;2751;49.802;9.944;2023-05-07T13:05:52;34.90;42.20
5457;DHT22;2751;49.802;9.944;2023-05-07T13:08:30;34.40;43.30
5457;DHT22;2751;49.802;9.944;2023-05-07T13:10:58;34.90;43.00
5457;DHT22;2751;49.802;9.944;2023-05-07T13:13:28;36.90;41.10
5457;DHT22;2751;49.802;9.944;2023-05-07T13:15:57;36.80;39.90
5457;DHT22;2751;49.802;9.944;2023-05-07T13:18:25;34.30;41.70
5457;DHT22;2751;49.802;9.944;2023-05-07T13:20:52;34.50;42.30
5457;DHT22;2751;49.802;9.944;2023-05-07T13:23:19;35.80;40.90
5457;DHT22;2751;49.802;9.944;2023-05-07T13:25:46;36.40;39.50
5457;DHT22;2751;49.802;9.944;2023-05-07T13:28:13;36.40;38.50
5457;DHT22;2751;49.802;9.944;2023-05-07T13:30:40;36.40;38.90
5457;DHT22;2751;49.802;9.944;2023-05-07T13:33:09;35.50;39.00
5457;DHT22;2751;49.802;9.944;2023-05-07T13:35:36;34.90;39.50
5457;DHT22;2751;49.802;9.944;2023-05-07T13:38:03;35.60;38.70
5457;DHT22;2751;49.802;9.944;2023-05-07T13:40:30;35.10;39.10
5457;DHT22;2751;49.802;9.944;2023-05-07T13:42:58;35.20;38.90
5457;DHT22;2751;49.802;9.944;2023-05-07T13:45:26;34.60;39.40
5457;DHT22;2751;49.802;9.944;2023-05-07T13:47:55;33.70;39.40
5457;DHT22;2751;49.802;9.944;2023-05-07T13:50:23;34.60;39.60
5457;DHT22;2751;49.802;9.944;2023-05-07T13:52:52;35.20;39.40
5457;DHT22;2751;49.802;9.944;2023-05-07T13:55:19;34.00;39.00
5457;DHT22;2751;49.802;9.944;2023-05-07T13:57:47;33.10;40.60
5457;DHT22;2751;49.802;9.944;2023-05-07T14:00:14;33.30;40.80
5457;DHT22;2751;49.802;9.944;2023-05-07T14:02:41;34.50;39.70
5457;DHT22;2751;49.802;9.944;2023-05-07T14:05:09;35.50;37.90
5457;DHT22;2751;49.802;9.944;2023-05-07T14:07:37;36.10;38.20
5457;DHT22;2751;49.802;9.944;2023-05-07T14:10:05;35.80;38.10
5457;DHT22;2751;49.802;9.944;2023-05-07T14:12:32;35.40;38.30
5457;DHT22;2751;49.802;9.944;2023-05-07T14:14:59;35.10;38.50
5457;DHT22;2751;49.802;9.944;2023-05-07T14:17:26;35.60;38.40
5457;DHT22;2751;49.802;9.944;2023-05-07T14:19:53;36.60;37.60
5457;DHT22;2751;49.802;9.944;2023-05-07T14:22:20;36.70;37.20
5457;DHT22;2751;49.802;9.944;2023-05-07T14:24:48;36.80;37.10
5457;DHT22;2751;49.802;9.944;2023-05-07T14:27:16;37.90;36.60
5457;DHT22;2751;49.802;9.944;2023-05-07T14:29:43;37.30;36.30
5457;DHT22;2751;49.802;9.944;2023-05-07T14:32:10;36.40;37.10
5457;DHT22;2751;49.802;9.944;2023-05-07T14:34:37;35.40;39.20
5457;DHT22;2751;49.802;9.944;2023-05-07T14:37:04;34.80;38.70
5457;DHT22;2751;49.802;9.944;2023-05-07T14:39:31;33.90;40.00
5457;DHT22;2751;49.802;9.944;2023-05-07T14:41:59;33.80;40.20
5457;DHT22;2751;49.802;9.944;2023-05-07T14:44:26;34.10;39.80
5457;DHT22;2751;49.802;9.944;2023-05-07T14:46:53;34.40;40.40
5457;DHT22;2751;49.802;9.944;2023-05-07T14:49:20;34.20;40.50
5457;DHT22;2751;49.802;9.944;2023-05-07T14:51:47;34.10;40.40
5457;DHT22;2751;49.802;9.944;2023-05-07T14:54:14;33.00;41.50
5457;DHT22;2751;49.802;9.944;2023-05-07T14:56:41;32.00;42.90
5457;DHT22;2751;49.802;9.944;2023-05-07T14:59:10;30.80;44.90
5457;DHT22;2751;49.802;9.944;2023-05-07T15:01:37;29.90;45.70
5457;DHT22;2751;49.802;9.944;2023-05-07T15:04:05;29.10;47.20
5457;DHT22;2751;49.802;9.944;2023-05-07T15:06:32;28.20;48.90
5457;DHT22;2751;49.802;9.944;2023-05-07T15:08:59;27.60;49.00
5457;DHT22;2751;49.802;9.944;2023-05-07T15:11:26;27.30;49.90
5457;DHT22;2751;49.802;9.944;2023-05-07T15:13:53;26.90;50.50
5457;DHT22;2751;49.802;9.944;2023-05-07T15:16:21;26.40;51.10
5457;DHT22;2751;49.802;9.944;2023-05-07T15:18:48;26.20;51.60
5457;DHT22;2751;49.802;9.944;2023-05-07T15:21:15;26.00;51.80
5457;DHT22;2751;49.802;9.944;2023-05-07T15:23:42;25.60;52.50
5457;DHT22;2751;49.802;9.944;2023-05-07T15:26:10;25.50;53.10
5457;DHT22;2751;49.802;9.944;2023-05-07T15:28:37;25.10;53.60
5457;DHT22;2751;49.802;9.944;2023-05-07T15:31:04;25.10;53.90
5457;DHT22;2751;49.802;9.944;2023-05-07T15:33:33;24.90;54.40
5457;DHT22;2751;49.802;9.944;2023-05-07T15:36:00;24.70;54.90
5457;DHT22;2751;49.802;9.944;2023-05-07T15:38:29;24.60;55.00
5457;DHT22;2751;49.802;9.944;2023-05-07T15:40:56;24.40;56.00
5457;DHT22;2751;49.802;9.944;2023-05-07T15:43:22;24.30;55.60
5457;DHT22;2751;49.802;9.944;2023-05-07T15:45:50;24.20;55.60
5457;DHT22;2751;49.802;9.944;2023-05-07T15:48:17;24.00;56.10
5457;DHT22;2751;49.802;9.944;2023-05-07T15:50:45;23.80;56.60
5457;DHT22;2751;49.802;9.944;2023-05-07T15:53:12;23.70;57.00
5457;DHT22;2751;49.802;9.944;2023-05-07T15:55:39;23.60;57.10
5457;DHT22;2751;49.802;9.944;2023-05-07T15:58:07;23.50;57.60
5457;DHT22;2751;49.802;9.944;2023-05-07T16:00:34;23.40;57.70
5457;DHT22;2751;49.802;9.944;2023-05-07T16:03:01;23.30;57.90
5457;DHT22;2751;49.802;9.944;2023-05-07T16:05:28;23.30;58.10
5457;DHT22;2751;49.802;9.944;2023-05-07T16:07:57;23.30;58.30
5457;DHT22;2751;49.802;9.944;2023-05-07T16:10:24;23.20;58.10